Time;durP1;ratioP1;P1;durP2;ratioP2;P2;SDS_P1;SDS_P2;PMS_P1;PMS_P2;Temp;Humidity;BMP_temperature;BMP_pressure;BME280_temperature;BME280_humidity;BME280_pressure;Samples;Min_cycle;Max_cycle;Signal;HPM_P1;HPM_P2
2022/01/21 18:55:45;;;;;;;;;;;;;;;24.02;19.28;100894.66;5082249;28;1473;-43
2022/01/21 18:58:10;;;;;;;;;;;;;;;24.97;18.41;100900.16;5059747;28;1060;-40
2022/01/21 19:00:35;;;;;;;;;;;;;;;25.49;17.85;100916.19;5068267;28;891;-44
2022/01/21 19:03:01;;;;;;;;;;;;;;;23.96;19.18;100908.69;5053660;28;829;-44
2022/01/21 19:05:28;;;;;;;;;;;;;;;23.22;20.33;100907.09;5061098;28;1140;-42
2022/01/21 19:07:54;;;;;;;;;;;;;;;23.20;20.42;100904.56;5037937;28;879;-43
2022/01/21 19:10:23;;;;;;;;;;;;;;;23.20;20.75;100915.28;5052986;28;1449;-44
2022/01/21 19:12:49;;;;;;;;;;;;;;;23.05;20.66;100909.59;5053287;28;866;-40
2022/01/21 19:15:14;;;;;;;;;;;;;;;23.08;20.57;100916.50;5053969;28;1960;-41
2022/01/21 19:17:40;;;;;;;;;;;;;;;23.20;20.45;100915.28;5054537;28;992;-41
2022/01/21 19:20:05;;;;;;;;;;;;;;;23.28;20.35;100908.28;5059414;28;806;-41
2022/01/21 19:22:38;;;;;;;;;;;;;;;23.27;20.67;100910.16;5053719;28;818;-41
2022/01/21 19:25:11;;;;;;;;;;;;;;;23.20;20.38;100911.75;5052635;28;852;-41
2022/01/21 19:27:36;;;;;;;;;;;;;;;23.43;20.02;100908.63;5066399;28;823;-43
2022/01/21 19:30:08;;;;;;;;;;;;;;;25.12;18.32;100916.50;5073165;28;960;-41
2022/01/21 19:32:33;;;;;;;;;;;;;;;25.56;18.00;100915.34;5061888;28;959;-40
2022/01/21 19:34:58;;;;;;;;;;;;;;;23.88;18.54;100916.69;5053080;28;1902;-43
2022/01/21 19:37:24;;;;;;;;;;;;;;;23.55;18.66;100914.63;5053539;28;871;-41
2022/01/21 19:39:49;;;;;;;;;;;;;;;23.41;18.31;100916.00;5052340;28;905;-41
2022/01/21 19:42:15;;;;;;;;;;;;;;;23.28;18.04;100925.25;5053059;28;806;-41
2022/01/21 19:44:42;;;;;;;;;;;;;;;23.31;17.84;100934.81;5052630;28;878;-42
2022/01/21 19:47:09;;;;;;;;;;;;;;;23.41;17.87;100937.47;5051615;28;1542;-43
2022/01/21 19:49:35;;;;;;;;;;;;;;;23.28;17.49;100936.00;5053099;28;856;-43
2022/01/21 19:52:00;;;;;;;;;;;;;;;23.30;17.71;100931.31;5053002;28;992;-46
2022/01/21 19:54:26;;;;;;;;;;;;;;;23.22;17.64;100929.38;5040370;28;1898;-50
2022/01/21 19:57:03;;;;;;;;;;;;;;;23.18;17.32;100930.69;5033978;28;1167;-47
2022/01/21 19:59:55;;;;;;;;;;;;;;;23.30;17.20;100944.75;5032623;28;794;-42
2022/01/21 20:10:36;;;;;;;;;;;;;;;23.14;16.68;100931.97;5029682;28;808;-46
2022/01/21 20:13:06;;;;;;;;;;;;;;;23.06;16.69;100932.75;5022235;28;1042;-48
2022/01/21 20:15:34;;;;;;;;;;;;;;;23.20;16.40;100938.59;5019355;28;1910;-42
2022/01/21 20:18:01;;;;;;;;;;;;;;;23.41;16.40;100943.69;5018577;28;754;-43
2022/01/21 20:20:26;;;;;;;;;;;;;;;23.12;16.30;100934.00;5019919;28;867;-43
2022/01/21 20:22:53;;;;;;;;;;;;;;;22.95;16.67;100941.84;5018501;28;869;-43
2022/01/21 20:25:19;;;;;;;;;;;;;;;22.98;16.70;100943.38;5027071;28;879;-43
2022/01/21 20:27:45;;;;;;;;;;;;;;;23.26;16.69;100935.28;5020341;28;1337;-46
2022/01/21 20:30:10;;;;;;;;;;;;;;;23.29;16.69;100943.03;5038368;28;850;-47
2022/01/21 20:32:39;;;;;;;;;;;;;;;23.18;16.22;100945.94;5037706;28;850;-45
2022/01/21 20:35:04;;;;;;;;;;;;;;;22.87;16.56;100955.19;5036749;28;1910;-42
2022/01/21 20:37:32;;;;;;;;;;;;;;;22.89;16.34;100955.03;5018767;28;923;-44
2022/01/21 20:40:17;;;;;;;;;;;;;;;23.07;16.34;100953.19;5018198;28;939;-41
2022/01/21 20:42:43;;;;;;;;;;;;;;;23.18;16.42;100968.25;5019134;28;821;-43
2022/01/21 20:45:08;;;;;;;;;;;;;;;23.06;15.94;100964.94;5018689;28;810;-42
2022/01/21 20:47:33;;;;;;;;;;;;;;;22.80;15.66;100956.75;5018165;28;880;-45
2022/01/21 20:49:59;;;;;;;;;;;;;;;22.70;15.59;100964.84;5026847;28;876;-42
2022/01/21 20:52:24;;;;;;;;;;;;;;;22.72;15.45;100961.00;5018645;28;759;-42
2022/01/21 20:54:50;;;;;;;;;;;;;;;22.86;15.33;100961.50;5019317;28;1898;-45
2022/01/21 20:57:15;;;;;;;;;;;;;;;22.86;15.29;100959.69;5037424;28;954;-40
2022/01/21 20:59:41;;;;;;;;;;;;;;;22.74;15.64;100947.44;5019487;28;870;-41
2022/01/21 21:02:06;;;;;;;;;;;;;;;22.62;16.08;100952.19;5023495;28;898;-44
2022/01/21 21:04:32;;;;;;;;;;;;;;;23.05;17.28;100949.84;5018216;28;869;-43
2022/01/21 21:06:58;;;;;;;;;;;;;;;23.00;18.18;100954.81;5017965;28;873;-40
2022/01/21 21:09:24;;;;;;;;;;;;;;;23.44;18.13;100953.28;5017903;28;805;-37
2022/01/21 21:11:50;;;;;;;;;;;;;;;23.33;18.50;100960.53;5037215;28;858;-38
2022/01/21 21:14:23;;;;;;;;;;;;;;;23.44;18.42;100966.72;5028017;28;1915;-40
2022/01/21 21:16:49;;;;;;;;;;;;;;;23.27;18.79;100963.84;5017827;28;854;-41
2022/01/21 21:24:42;;;;;;;;;;;;;;;23.62;19.43;100963.19;5021997;28;873;-38
2022/01/21 21:27:45;;;;;;;;;;;;;;;23.69;19.49;100959.72;5031659;28;874;-41
2022/01/21 21:30:14;;;;;;;;;;;;;;;23.66;20.20;100964.53;5015659;28;1174;-43
2022/01/21 22:49:46;;;;;;;;;;;;;;;26.00;19.15;100996.03;5030688;28;844;-42
2022/01/21 23:02:11;;;;;;;;;;;;;;;27.74;17.59;100972.91;5035421;28;750;-42
2022/01/21 23:04:36;;;;;;;;;;;;;;;27.97;17.39;100968.50;5035557;28;818;-42
2022/01/21 23:07:04;;;;;;;;;;;;;;;28.15;17.18;100976.25;5035374;28;1283;-42
2022/01/21 23:09:29;;;;;;;;;;;;;;;28.38;16.78;100969.97;5023408;28;828;-42
2022/01/21 23:11:54;;;;;;;;;;;;;;;26.42;18.81;100964.50;5016988;28;933;-43
2022/01/21 23:14:20;;;;;;;;;;;;;;;26.02;19.26;100964.38;5016200;28;1902;-43
2022/01/21 23:16:48;;;;;;;;;;;;;;;26.02;19.33;100970.59;5016412;28;810;-42
2022/01/21 23:19:14;;;;;;;;;;;;;;;25.98;19.32;100966.56;5016089;28;809;-43
2022/01/21 23:21:39;;;;;;;;;;;;;;;25.84;19.47;100968.06;5016535;28;897;-42
2022/01/21 23:24:09;;;;;;;;;;;;;;;25.84;19.58;100972.63;5017346;28;869;-43
2022/01/21 23:26:36;;;;;;;;;;;;;;;25.72;19.66;100964.91;5031693;28;767;-42
2022/01/21 23:31:29;;;;;;;;;;;;;;;25.54;19.90;100965.84;5035066;28;715;-41
2022/01/21 23:33:59;;;;;;;;;;;;;;;25.59;19.77;100959.94;5029401;28;1887;-42
2022/01/21 23:36:34;;;;;;;;;;;;;;;25.56;19.91;100958.44;5016289;28;908;-43
2022/01/21 23:42:04;;;;;;;;;;;;;;;25.60;19.88;100964.34;5035972;28;806;-43
2022/01/21 23:44:29;;;;;;;;;;;;;;;25.56;19.70;100973.75;5038591;28;852;-41
2022/01/21 23:46:57;;;;;;;;;;;;;;;25.63;19.98;100972.13;5031688;28;819;-43
2022/01/21 23:49:35;;;;;;;;;;;;;;;25.80;19.71;100974.81;5023330;28;978;-42
2022/01/21 23:52:01;;;;;;;;;;;;;;;25.61;19.95;100975.97;5019396;28;1398;-41
2022/01/21 23:54:26;;;;;;;;;;;;;;;25.57;20.09;100972.75;5021378;28;1993;-43
2022/01/21 23:56:51;;;;;;;;;;;;;;;25.46;20.08;100973.91;5019826;28;813;-43
2022/01/21 23:59:16;;;;;;;;;;;;;;;25.48;19.96;100977.28;5022142;28;865;-41
